createdAt,value
2023-02-19T00:01:59.839Z,74.62
2023-02-19T00:07:02.311Z,74.99
2023-02-19T00:12:06.523Z,74.56
2023-02-19T00:17:09.026Z,74.70
2023-02-19T00:22:11.952Z,74.43
2023-02-19T00:27:15.374Z,74.24
2023-02-19T00:32:17.755Z,73.31
2023-02-19T00:37:21.322Z,73.07
2023-02-19T00:42:26.389Z,72.17
2023-02-19T00:47:30.037Z,70.89
2023-02-19T00:52:32.381Z,71.17
2023-02-19T00:57:35.321Z,71.66
2023-02-19T01:02:38.198Z,72.79
2023-02-19T01:07:40.984Z,71.00
2023-02-19T01:12:43.497Z,71.71
2023-02-19T01:17:46.075Z,72.25
2023-02-19T01:22:48.830Z,71.23
2023-02-19T01:27:51.883Z,70.49
2023-02-19T01:32:54.778Z,71.12
2023-02-19T01:37:57.662Z,71.67
2023-02-19T01:43:00.266Z,70.62
2023-02-19T01:48:18.118Z,70.47
2023-02-19T01:53:26.252Z,71.10
2023-02-19T01:58:33.903Z,70.66
2023-02-19T02:03:39.030Z,70.93
2023-02-19T02:09:00.991Z,70.14
2023-02-19T02:14:05.614Z,70.18
2023-02-19T02:19:44.596Z,70.55
2023-02-19T02:25:21.814Z,70.12
2023-02-19T02:30:34.430Z,68.95
2023-02-19T02:35:57.158Z,70.59
2023-02-19T02:41:00.323Z,70.27
2023-02-19T02:46:03.320Z,70.63
2023-02-19T02:51:27.674Z,69.18
2023-02-19T02:56:45.111Z,70.03
2023-02-19T03:02:13.461Z,70.54
2023-02-19T03:07:16.577Z,70.85
2023-02-19T03:12:40.295Z,70.59
2023-02-19T03:18:11.175Z,70.35
2023-02-19T03:23:17.732Z,70.49
2023-02-19T03:28:47.795Z,70.46
2023-02-19T03:33:59.997Z,70.05
2023-02-19T03:39:08.340Z,70.31
2023-02-19T03:44:36.251Z,70.85
2023-02-19T03:49:57.058Z,71.04
2023-02-19T03:55:20.932Z,70.71
2023-02-19T04:00:51.454Z,71.07
2023-02-19T04:06:01.288Z,71.48
2023-02-19T04:11:05.080Z,70.39
2023-02-19T04:16:18.117Z,71.00
2023-02-19T04:21:23.288Z,70.52
2023-02-19T04:26:25.955Z,70.69
2023-02-19T04:31:32.551Z,70.81
2023-02-19T04:36:35.244Z,69.93
2023-02-19T04:41:37.654Z,69.48
2023-02-19T04:46:43.018Z,69.63
2023-02-19T04:51:45.922Z,68.42
2023-02-19T04:56:48.376Z,69.41
2023-02-19T05:01:50.927Z,69.28
2023-02-19T05:06:53.388Z,69.77
2023-02-19T05:11:55.860Z,68.63
2023-02-19T05:16:58.262Z,70.57
2023-02-19T05:22:01.342Z,68.69
2023-02-19T05:27:03.924Z,69.07
2023-02-19T05:32:06.890Z,69.25
2023-02-19T05:37:10.228Z,69.30
2023-02-19T05:42:16.097Z,69.24
2023-02-19T05:47:19.045Z,69.50
2023-02-19T05:52:21.885Z,69.29
2023-02-19T05:57:24.436Z,69.38
2023-02-19T06:02:27.726Z,68.99
2023-02-19T06:07:32.032Z,70.00
2023-02-19T06:12:34.492Z,69.63
2023-02-19T06:17:37.543Z,68.61
2023-02-19T06:22:40.136Z,68.83
2023-02-19T06:27:42.618Z,67.91
2023-02-19T06:32:45.157Z,68.28
2023-02-19T06:37:49.487Z,68.08
2023-02-19T06:42:52.012Z,70.05
2023-02-19T06:47:55.842Z,70.16
2023-02-19T06:52:58.380Z,71.02
2023-02-19T06:58:00.982Z,69.99
2023-02-19T07:03:05.600Z,70.51
2023-02-19T07:08:08.841Z,70.48
2023-02-19T07:13:12.622Z,71.73
2023-02-19T07:18:15.570Z,70.32
2023-02-19T07:23:18.110Z,71.06
2023-02-19T07:28:21.077Z,71.46
2023-02-19T07:33:23.415Z,69.75
2023-02-19T07:38:27.697Z,71.28
2023-02-19T07:43:36.997Z,71.35
2023-02-19T07:48:41.587Z,68.18
2023-02-19T07:53:44.050Z,70.48
2023-02-19T07:58:46.694Z,68.93
2023-02-19T08:03:50.528Z,70.69
2023-02-19T08:08:53.031Z,71.57
2023-02-19T08:13:55.446Z,69.85
2023-02-19T08:18:58.359Z,71.77
2023-02-19T08:24:00.826Z,73.59
2023-02-19T08:29:05.181Z,74.37
2023-02-19T08:34:07.691Z,73.36
2023-02-19T08:39:10.470Z,73.94
2023-02-19T08:44:12.916Z,73.57
2023-02-19T08:49:16.806Z,71.79
2023-02-19T08:54:19.254Z,72.24
2023-02-19T08:59:21.776Z,73.44
2023-02-19T09:04:24.147Z,73.09
2023-02-19T09:09:26.735Z,72.15
2023-02-19T09:14:32.775Z,72.14
2023-02-19T09:19:36.406Z,73.09
2023-02-19T09:24:39.372Z,72.32
2023-02-19T09:29:42.491Z,72.22
2023-02-19T09:34:45.278Z,73.71
2023-02-19T09:39:47.959Z,73.27
2023-02-19T09:44:53.143Z,74.18
2023-02-19T09:50:07.416Z,71.29
2023-02-19T09:55:35.152Z,71.55
2023-02-19T10:00:38.140Z,71.50
2023-02-19T10:05:41.200Z,71.81
2023-02-19T10:10:44.390Z,70.76
2023-02-19T10:15:59.045Z,68.54
2023-02-19T10:21:02.579Z,70.77
2023-02-19T10:26:05.860Z,71.46
2023-02-19T10:31:21.720Z,71.53
2023-02-19T10:36:31.752Z,71.21
2023-02-19T10:41:42.467Z,70.28
2023-02-19T10:46:50.073Z,67.74
2023-02-19T10:51:55.236Z,67.74
2023-02-19T10:57:16.011Z,68.34
2023-02-19T11:02:20.455Z,73.97
2023-02-19T11:07:23.206Z,72.86
2023-02-19T11:12:35.906Z,69.05
2023-02-19T11:17:39.060Z,72.12
2023-02-19T11:22:47.225Z,72.65
2023-02-19T11:28:07.459Z,73.09
2023-02-19T11:33:25.169Z,72.15
2023-02-19T11:38:27.733Z,71.35
2023-02-19T11:43:42.394Z,70.63
2023-02-19T11:48:56.990Z,70.79
2023-02-19T11:54:19.369Z,72.17
2023-02-19T11:59:34.648Z,71.36
2023-02-19T12:05:08.694Z,70.93
2023-02-19T12:10:22.055Z,71.96
2023-02-19T12:15:49.681Z,72.16
2023-02-19T12:20:58.043Z,70.12
2023-02-19T12:26:27.792Z,70.74
2023-02-19T12:31:39.423Z,70.24
2023-02-19T12:37:09.153Z,69.84
2023-02-19T12:42:34.899Z,71.49
2023-02-19T12:47:42.640Z,72.77
2023-02-19T12:52:51.584Z,70.95
2023-02-19T12:57:55.686Z,70.88
2023-02-19T13:03:21.309Z,68.98
2023-02-19T13:09:06.031Z,68.89
2023-02-19T13:14:32.877Z,66.90
2023-02-19T13:19:38.842Z,68.40
2023-02-19T13:24:45.078Z,66.63
2023-02-19T13:29:47.370Z,68.24
2023-02-19T13:35:04.957Z,66.52
2023-02-19T13:40:21.143Z,67.65
2023-02-19T13:45:33.355Z,68.18
2023-02-19T13:50:36.434Z,67.89
2023-02-19T13:55:50.077Z,68.78
2023-02-19T14:00:54.094Z,67.85
2023-02-19T14:06:17.123Z,68.70
2023-02-19T14:11:42.227Z,69.11
2023-02-19T14:16:47.655Z,68.04
2023-02-19T14:21:50.196Z,68.28
2023-02-19T14:26:52.689Z,68.12
2023-02-19T14:31:55.706Z,68.61
2023-02-19T14:37:01.397Z,66.08
2023-02-19T14:42:25.414Z,68.27
2023-02-19T14:47:35.467Z,68.01
2023-02-19T14:52:48.285Z,68.20
2023-02-19T14:57:54.361Z,68.42
2023-02-19T15:02:58.967Z,68.34
2023-02-19T15:08:13.673Z,68.63
2023-02-19T15:13:22.152Z,67.84
2023-02-19T15:18:26.543Z,68.85
2023-02-19T15:23:32.046Z,69.55
2023-02-19T15:28:34.888Z,69.76
2023-02-19T15:33:37.437Z,68.69
2023-02-19T15:38:40.232Z,69.58
2023-02-19T15:43:51.854Z,68.70
2023-02-19T15:49:01.089Z,69.30
2023-02-19T15:54:22.820Z,69.76
2023-02-19T15:59:57.870Z,69.42
2023-02-19T16:05:02.536Z,69.71
2023-02-19T16:10:17.192Z,69.48
2023-02-19T16:15:20.961Z,68.99
2023-02-19T16:20:25.278Z,68.23
2023-02-19T16:25:46.512Z,69.21
2023-02-19T16:31:01.603Z,69.27
2023-02-19T16:36:29.186Z,69.34
2023-02-19T16:41:32.021Z,69.05
2023-02-19T16:46:34.885Z,70.03
2023-02-19T16:51:37.712Z,69.67
2023-02-19T16:56:40.442Z,69.18
2023-02-19T17:01:43.334Z,69.26
2023-02-19T17:06:47.811Z,69.42
2023-02-19T17:11:50.477Z,68.60
2023-02-19T17:16:53.825Z,69.16
2023-02-19T17:21:56.409Z,69.18
2023-02-19T17:26:59.798Z,68.80
2023-02-19T17:32:04.813Z,68.38
2023-02-19T17:37:07.482Z,68.63
2023-02-19T17:42:15.107Z,68.11
2023-02-19T17:47:17.663Z,67.53
2023-02-19T17:52:20.062Z,68.80
2023-02-19T17:57:22.604Z,67.66
2023-02-19T18:02:25.143Z,67.12
2023-02-19T18:07:27.741Z,67.44
2023-02-19T18:12:30.351Z,67.50
2023-02-19T18:17:33.837Z,67.98
2023-02-19T18:22:36.557Z,67.84
2023-02-19T18:27:39.984Z,67.75
2023-02-19T18:32:42.941Z,66.58
2023-02-19T18:37:46.060Z,67.71
2023-02-19T18:42:48.735Z,66.98
2023-02-19T18:47:51.386Z,66.91
2023-02-19T18:52:54.154Z,68.10
2023-02-19T18:57:56.628Z,67.44
2023-02-19T19:02:59.852Z,67.33
2023-02-19T19:08:02.629Z,65.70
2023-02-19T19:13:05.823Z,67.24
2023-02-19T19:18:09.343Z,67.43
2023-02-19T19:23:12.534Z,67.07
2023-02-19T19:28:15.157Z,67.06
2023-02-19T19:33:18.292Z,65.95
2023-02-19T19:38:20.804Z,66.92
2023-02-19T19:43:27.550Z,67.27
2023-02-19T19:48:29.884Z,67.52
2023-02-19T19:53:32.537Z,67.27
2023-02-19T19:58:37.019Z,68.05
2023-02-19T20:03:40.318Z,67.88
2023-02-19T20:08:45.577Z,68.55
2023-02-19T20:13:49.347Z,68.69
2023-02-19T20:18:52.449Z,67.90
2023-02-19T20:23:57.275Z,68.21
2023-02-19T20:29:00.449Z,69.15
2023-02-19T20:34:04.010Z,69.39
2023-02-19T20:39:07.139Z,68.85
2023-02-19T20:44:10.118Z,68.96
2023-02-19T20:49:15.181Z,69.23
2023-02-19T20:54:19.018Z,69.88
2023-02-19T20:59:24.273Z,68.48
2023-02-19T21:04:27.734Z,68.31
2023-02-19T21:09:30.799Z,68.35
2023-02-19T21:14:33.456Z,67.96
2023-02-19T21:19:35.956Z,67.13
2023-02-19T21:24:40.893Z,68.08
2023-02-19T21:29:43.824Z,67.90
2023-02-19T21:34:47.530Z,67.41
2023-02-19T21:39:50.654Z,67.50
2023-02-19T21:44:53.348Z,67.26
2023-02-19T21:49:57.292Z,66.68
2023-02-19T21:54:59.771Z,66.14
2023-02-19T22:00:02.680Z,66.35
2023-02-19T22:05:10.661Z,67.00
2023-02-19T22:10:13.830Z,68.13
2023-02-19T22:15:18.749Z,67.98
2023-02-19T22:20:21.902Z,67.10
2023-02-19T22:25:24.891Z,68.65
2023-02-19T22:30:27.969Z,68.07
2023-02-19T22:35:30.540Z,67.40
2023-02-19T22:40:33.622Z,67.29
2023-02-19T22:45:36.170Z,67.23
2023-02-19T22:50:41.120Z,66.92
2023-02-19T22:55:43.541Z,66.79
2023-02-19T23:00:47.458Z,67.89
2023-02-19T23:05:50.744Z,67.92
2023-02-19T23:10:56.384Z,67.19
2023-02-19T23:15:59.692Z,67.50
2023-02-19T23:21:02.371Z,67.45
2023-02-19T23:26:07.074Z,67.36
2023-02-19T23:31:11.345Z,67.18
2023-02-19T23:36:16.141Z,67.64
2023-02-19T23:41:19.837Z,67.57
2023-02-19T23:46:22.775Z,66.97
2023-02-19T23:51:25.532Z,66.34
2023-02-19T23:56:29.870Z,65.95
